KLWV/LWV METAR and TAF weather

Enter ICAO airport designator
Station Type Date Time Source
KLWV METAR 2019/08/19 22:53 UTC NOAA

KLWV 192253Z AUTO 20007KT 10SM CLR 32/23 A2998 RMK AO2 SLP146 T03170233


Station Type Date Time Source
KLWV Decoded METAR 2019/08/19 22:53 UTC NOAA

LAWRENCEVILLE-VINCENNES INTERNATIONAL , IL, United States (KLWV) 38-46N 87-36W 131M
Aug 19, 2019 - 06:53 PM EDT / 2019.08.19 2253 UTC
Wind: from the SSW (200 degrees) at 8 MPH (7 KT):0
Visibility: 10 mile(s):0
Sky conditions: clear
Temperature: 89.1 F (31.7 C)
Heat index: 98.1 F (36.7 C):1
Dew Point: 73.9 F (23.3 C)
Relative Humidity: 61%
Pressure (altimeter): 29.98 in. Hg (1015 hPa)
ob: KLWV 192253Z AUTO 20007KT 10SM CLR 32/23 A2998 RMK AO2 SLP146 T03170233
cycle: 23

Station Type Date Time Source
KLWV TAF UTC NOAA

Error!

Example: see airport list